Bremen — C6JC3 — position and weather

sailwx.info

Track history (hours):
 
Tides and Currents Weather Stations Pressure Air Temp Water Temp Dewpoint Dewpoint Depression Visibility Wind Speed Wind Dir Waves Ship Positions

Bremen

Operator: Hapag-Lloyd Container Line

Last reported at 2015-May-25 21:03 UTC. Time now 2015-May-26 03:45 UTC.
Position N 41°43' W 009°07'.

Length 111.5 m; beam 17 m; draft 4.8 m.

Type: Ship. MMSI: 308429000.

Date/timePositionNaut miles runAvg speedWind from/ knotsBaromVisibWave heightAir tempDewpointWater temp
2015-May-25 21:03N 41°43' W 009°07'814.4
2015-May-25 20:31N 41°35' W 009°03'1414.9
2015-May-25 19:34N 41°22' W 008°56'  
2015-May-22 23:21N 38°51' W 025°11'1114.5
2015-May-22 22:33N 38°49' W 025°26'1514.7
2015-May-22 21:33N 38°46' W 025°44'1514.8
2015-May-22 20:33N 38°43' W 026°03'1514.5
2015-May-22 19:33N 38°41' W 026°21'1414.1
2015-May-22 18:34N 38°38' W 026°39'1514.8
2015-May-22 17:33N 38°36' W 026°57'1514.5
2015-May-22 16:33N 38°33' W 027°16'1514.9
2015-May-22 15:34N 38°31' W 027°35'1514.8
2015-May-22 14:33N 38°30' W 027°53'1514.8
2015-May-22 13:33N 38°33' W 028°12'1514.9
2015-May-22 12:33N 38°34' W 028°31'5 2.2
2015-May-22 10:12N 38°32' W 028°37'0 0.0
2015-May-22 09:10N 38°32' W 028°37'0 0.0
2015-May-22 07:33N 38°32' W 028°37'4 4.5
2015-May-22 06:33N 38°29' W 028°41'1312.7
2015-May-22 05:33N 38°24' W 028°55'1312.6
2015-May-22 04:34N 38°18' W 029°10'1413.5
2015-May-22 03:33N 38°13' W 029°26'1413.9
2015-May-22 02:33N 38°06' W 029°42'1413.9
2015-May-22 01:34N 38°01' W 029°58'1313.3
2015-May-22 00:33N 37°55' W 030°13'4413.6
2015-May-21 21:19N 37°37' W 031°04'  
Track history (hours):
 
Tides and Currents Weather Stations Pressure Air Temp Water Temp Dewpoint Dewpoint Depression Visibility Wind Speed Wind Dir Waves Ship Positions

Bremen

Operator: Hapag-Lloyd Container Line

Last reported at 2015-May-25 21:03 UTC. Time now 2015-May-26 03:45 UTC.
Position N 41°43' W 009°07'.

Length 111.5 m; beam 17 m; draft 4.8 m.

Type: Ship. MMSI: 308429000.

Date/timePositionNaut miles runAvg speedWind from/ knotsBaromVisibWave heightAir tempDewpointWater temp
2015-May-25 21:03N 41°43' W 009°07'814.4
2015-May-25 20:31N 41°35' W 009°03'1414.9
2015-May-25 19:34N 41°22' W 008°56'  
2015-May-22 23:21N 38°51' W 025°11'1114.5
2015-May-22 22:33N 38°49' W 025°26'1514.7
2015-May-22 21:33N 38°46' W 025°44'1514.8
2015-May-22 20:33N 38°43' W 026°03'1514.5
2015-May-22 19:33N 38°41' W 026°21'1414.1
2015-May-22 18:34N 38°38' W 026°39'1514.8
2015-May-22 17:33N 38°36' W 026°57'1514.5
2015-May-22 16:33N 38°33' W 027°16'1514.9
2015-May-22 15:34N 38°31' W 027°35'1514.8
2015-May-22 14:33N 38°30' W 027°53'1514.8
2015-May-22 13:33N 38°33' W 028°12'1514.9
2015-May-22 12:33N 38°34' W 028°31'5 2.2
2015-May-22 10:12N 38°32' W 028°37'0 0.0
2015-May-22 09:10N 38°32' W 028°37'0 0.0
2015-May-22 07:33N 38°32' W 028°37'4 4.5
2015-May-22 06:33N 38°29' W 028°41'1312.7
2015-May-22 05:33N 38°24' W 028°55'1312.6
2015-May-22 04:34N 38°18' W 029°10'1413.5
2015-May-22 03:33N 38°13' W 029°26'1413.9
2015-May-22 02:33N 38°06' W 029°42'1413.9
2015-May-22 01:34N 38°01' W 029°58'1313.3
2015-May-22 00:33N 37°55' W 030°13'4413.6
2015-May-21 21:19N 37°37' W 031°04'  

Dump ship's entire track history